»·PEaware :: UAL342 KEGE-KDEN

UAL342 :: KEGE-KDEN

FLIGHT INFORMATION

Flight Status: Arrived
Operator:
United Airlines
More flights by this operator :: More flights under this callsign
Pilot: Sergei F. (8485)
Aircraft: BOEING 737-600
(B736)
More flights by this aircraft type
Origin: KEGE Eagle Co Regl
United States
Destination: KDEN Denver Intl
United States
More flights between these airports :: More routes between these airports
Route: GYPSM6 RLG LONGZ LONGZ2
File this flight plan on PilotEdge
Remarks:
Altitude:
(Current/Filed)
25,000ft
Speed:
(Current/Filed)
441kts
Departed: 10-Nov-23 09:14 PM
Arrived: 10-Nov-23 09:45 PM
Distance/Time
Traveled:
104nm/0:30
Distance/Time
To Go:
Arrived

Flight Plot

Page will automatically refresh every two minutes.

Flight plan parsing failed; only flown route is shown


Map Options




Map Legend


Flown Route
Filed Route
Departure Airport
Arrival Airport
Navaid (VOR, NDB)
Fix

Horizontal Profiles

Position Reports

Time Latitude Longitude Heading Altitude Ground
Speed
10-Nov-23 20:39 39.640510 -106.915379 171 6526ft 0kts
10-Nov-23 20:40 39.640510 -106.915379 171 6526ft 0kts
10-Nov-23 20:41 39.640510 -106.915379 171 6526ft 0kts
10-Nov-23 20:42 39.640510 -106.915379 171 6526ft 0kts
10-Nov-23 20:43 39.640510 -106.915379 171 6526ft 0kts
10-Nov-23 20:44 39.640510 -106.915379 171 6526ft 0kts
10-Nov-23 20:45 39.640510 -106.915379 171 6526ft 0kts
10-Nov-23 20:46 39.640510 -106.915379 171 6526ft 0kts
10-Nov-23 20:46 39.640510 -106.915379 171 6526ft 0kts
10-Nov-23 20:48 39.640510 -106.915379 171 6525ft 0kts
10-Nov-23 20:49 39.640510 -106.915379 171 6525ft 0kts
10-Nov-23 20:50 39.640510 -106.915379 171 6525ft 0kts
10-Nov-23 20:51 39.640510 -106.915379 171 6525ft 0kts
10-Nov-23 20:51 39.640510 -106.915379 171 6525ft 0kts
10-Nov-23 20:52 39.640510 -106.915379 171 6525ft 0kts
10-Nov-23 20:53 39.640510 -106.915379 171 6525ft 0kts
10-Nov-23 20:55 39.640510 -106.915379 171 6525ft 0kts
10-Nov-23 20:55 39.640510 -106.915379 171 6525ft 0kts
10-Nov-23 20:56 39.640510 -106.915379 171 6525ft 0kts
10-Nov-23 20:57 39.640510 -106.915379 171 6525ft 0kts
10-Nov-23 20:58 39.640515 -106.915380 171 6526ft 2kts
10-Nov-23 20:59 39.641065 -106.915348 218 6527ft 2kts
10-Nov-23 21:01 39.641183 -106.914936 261 6532ft 0kts
10-Nov-23 21:01 39.641183 -106.914936 261 6532ft 0kts
10-Nov-23 21:02 39.641183 -106.914936 261 6525ft 0kts
10-Nov-23 21:03 39.641183 -106.914936 261 6525ft 0kts
10-Nov-23 21:04 39.641183 -106.914936 261 6525ft 0kts
10-Nov-23 21:05 39.641183 -106.914936 261 6525ft 0kts
10-Nov-23 21:06 39.641176 -106.914993 261 6525ft 1kts
10-Nov-23 21:07 39.641778 -106.914937 81 6524ft 6kts
10-Nov-23 21:08 39.642193 -106.911169 81 6531ft 13kts
10-Nov-23 21:09 39.642740 -106.906184 82 6539ft 14kts
10-Nov-23 21:10 39.643267 -106.901366 82 6550ft 12kts
10-Nov-23 21:11 39.643560 -106.900207 22 6550ft 1kts
10-Nov-23 21:12 39.644446 -106.900639 262 6550ft 0kts
10-Nov-23 21:13 39.641440 -106.927665 261 6914ft 166kts
10-Nov-23 21:14 39.615158 -106.973727 223 9925ft 170kts
10-Nov-23 21:15 39.620866 -107.025644 340 11557ft 241kts
10-Nov-23 21:16 39.693259 -107.060931 336 13811ft 310kts
10-Nov-23 21:17 39.780218 -107.046423 52 16437ft 364kts
10-Nov-23 21:18 39.826229 -106.924163 63 19772ft 385kts
10-Nov-23 21:19 39.873123 -106.795800 62 22750ft 403kts
10-Nov-23 21:20 39.922782 -106.660867 63 24804ft 425kts
10-Nov-23 21:21 39.973480 -106.522429 63 25090ft 423kts
10-Nov-23 21:22 40.027576 -106.385221 56 25103ft 424kts
10-Nov-23 21:23 40.092399 -106.252248 56 25173ft 438kts
10-Nov-23 21:24 40.156174 -106.117235 56 25238ft 439kts
10-Nov-23 21:25 40.220129 -105.980565 56 25241ft 434kts
10-Nov-23 21:26 40.283288 -105.845112 56 24473ft 433kts
10-Nov-23 21:27 40.344311 -105.713633 56 21765ft 414kts
10-Nov-23 21:28 40.380193 -105.577216 99 19242ft 404kts
10-Nov-23 21:29 40.356522 -105.436050 101 17386ft 375kts
10-Nov-23 21:30 40.337162 -105.309110 98 16304ft 343kts
10-Nov-23 21:31 40.321185 -105.188668 98 14804ft 332kts
10-Nov-23 21:32 40.305182 -105.071140 99 13565ft 313kts
10-Nov-23 21:33 40.290626 -104.965283 99 13043ft 278kts
10-Nov-23 21:34 40.277291 -104.868520 99 12105ft 267kts
10-Nov-23 21:35 40.264219 -104.774223 101 11097ft 260kts
10-Nov-23 21:36 40.228351 -104.697694 151 10371ft 247kts
10-Nov-23 21:37 40.169652 -104.683679 183 10060ft 196kts
10-Nov-23 21:38 40.114138 -104.684270 183 9265ft 192kts
10-Nov-23 21:39 40.061518 -104.684886 182 8463ft 183kts
10-Nov-23 21:40 40.013624 -104.685444 182 7713ft 165kts
10-Nov-23 21:41 39.969652 -104.685949 182 6919ft 140kts
10-Nov-23 21:42 39.931720 -104.686438 182 6109ft 136kts
10-Nov-23 21:43 39.893220 -104.686851 182 5369ft 131kts
10-Nov-23 21:44 39.876837 -104.686037 153 5361ft 17kts
10-Nov-23 21:45 39.875120 -104.685018 150 5362ft 3kts
10-Nov-23 21:46 39.874120 -104.683809 179 5361ft 8kts
10-Nov-23 21:47 39.870517 -104.683840 180 5361ft 17kts
10-Nov-23 21:48 39.865826 -104.683898 180 5363ft 16kts
10-Nov-23 21:49 39.861216 -104.683963 181 5364ft 16kts
10-Nov-23 21:50 39.857715 -104.683998 181 5371ft 9kts
10-Nov-23 21:51 39.856858 -104.682200 90 5383ft 7kts
10-Nov-23 21:52 39.857354 -104.679773 85 5380ft 6kts
10-Nov-23 21:53 39.857344 -104.677391 89 5384ft 7kts
10-Nov-23 21:54 39.857332 -104.675376 91 5384ft 0kts
10-Nov-23 21:55 39.857332 -104.675376 91 5384ft 0kts
10-Nov-23 21:56 39.857609 -104.674633 2 5383ft 4kts
10-Nov-23 21:57 39.858190 -104.674622 0 5384ft 1kts
10-Nov-23 21:58 39.858219 -104.674622 0 5384ft 0kts

Navigation Log

Ident Type
Flight plan parsing failed, navigation log unavailable